sensor_id;sensor_type;location;lat;lon;timestamp;pressure;altitude;pressure_sealevel;temperature;humidity
62980;BME280;49075;53.988;27.678;2023-01-27T00:01:13;990.3;;;-3.6;82.1
62980;BME280;49075;53.988;27.678;2023-01-27T00:06:22;990.3;;;-3.6;82
62980;BME280;49075;53.988;27.678;2023-01-27T00:11:10;990.3;;;-3.6;82.2
62980;BME280;49075;53.988;27.678;2023-01-27T00:16:30;990.4;;;-3.6;82.1
62980;BME280;49075;53.988;27.678;2023-01-27T00:21:10;990.3;;;-3.6;82.1
62980;BME280;49075;53.988;27.678;2023-01-27T00:26:44;990.3;;;-3.6;82
62980;BME280;49075;53.988;27.678;2023-01-27T00:31:11;990.3;;;-3.6;82.1
62980;BME280;49075;53.988;27.678;2023-01-27T00:36:29;990.2;;;-3.5;81.8
62980;BME280;49075;53.988;27.678;2023-01-27T00:41:18;990.2;;;-3.4;81.6
62980;BME280;49075;53.988;27.678;2023-01-27T00:46:34;990.2;;;-3.4;81.5
62980;BME280;49075;53.988;27.678;2023-01-27T00:51:10;990.1;;;-3.4;81.5
62980;BME280;49075;53.988;27.678;2023-01-27T00:56:11;990.1;;;-3.5;81.7
62980;BME280;49075;53.988;27.678;2023-01-27T01:01:38;990.1;;;-3.4;81.7
62980;BME280;49075;53.988;27.678;2023-01-27T01:06:20;990.1;;;-3.5;81.8
62980;BME280;49075;53.988;27.678;2023-01-27T01:11:11;990;;;-3.5;81.9
62980;BME280;49075;53.988;27.678;2023-01-27T01:16:21;990;;;-3.5;81.8
62980;BME280;49075;53.988;27.678;2023-01-27T01:21:11;990;;;-3.4;81.8
62980;BME280;49075;53.988;27.678;2023-01-27T01:26:30;990;;;-3.5;81.8
62980;BME280;49075;53.988;27.678;2023-01-27T01:31:11;989.9;;;-3.4;81.7
62980;BME280;49075;53.988;27.678;2023-01-27T01:36:44;989.9;;;-3.4;81.7
62980;BME280;49075;53.988;27.678;2023-01-27T01:41:21;989.9;;;-3.5;81.8
62980;BME280;49075;53.988;27.678;2023-01-27T01:46:11;989.9;;;-3.4;81.6
62980;BME280;49075;53.988;27.678;2023-01-27T01:51:19;989.8;;;-3.3;81.5
62980;BME280;49075;53.988;27.678;2023-01-27T01:56:11;989.7;;;-3.4;81.7
62980;BME280;49075;53.988;27.678;2023-01-27T02:01:10;989.8;;;-3.4;81.6
62980;BME280;49075;53.988;27.678;2023-01-27T02:06:35;989.8;;;-3.4;81.5
62980;BME280;49075;53.988;27.678;2023-01-27T02:11:30;989.8;;;-3.3;81.2
62980;BME280;49075;53.988;27.678;2023-01-27T02:16:32;989.8;;;-3.3;81.3
62980;BME280;49075;53.988;27.678;2023-01-27T02:21:24;989.9;;;-3.3;81.2
62980;BME280;49075;53.988;27.678;2023-01-27T02:26:13;989.9;;;-3.3;81.2
62980;BME280;49075;53.988;27.678;2023-01-27T02:31:12;989.9;;;-3.2;81.1
62980;BME280;49075;53.988;27.678;2023-01-27T02:36:20;989.9;;;-3.3;81.3
62980;BME280;49075;53.988;27.678;2023-01-27T02:41:25;989.8;;;-3.3;81.3
62980;BME280;49075;53.988;27.678;2023-01-27T02:46:22;989.8;;;-3.2;81.1
62980;BME280;49075;53.988;27.678;2023-01-27T02:51:14;989.8;;;-3.3;81.2
62980;BME280;49075;53.988;27.678;2023-01-27T02:56:22;989.8;;;-3.4;81.6
62980;BME280;49075;53.988;27.678;2023-01-27T03:01:23;989.8;;;-3.4;81.5
62980;BME280;49075;53.988;27.678;2023-01-27T03:06:32;989.8;;;-3.3;81.4
62980;BME280;49075;53.988;27.678;2023-01-27T03:11:12;989.9;;;-3.3;81.3
62980;BME280;49075;53.988;27.678;2023-01-27T03:16:32;989.8;;;-3.2;81.3
62980;BME280;49075;53.988;27.678;2023-01-27T03:21:34;989.8;;;-3.3;81.5
62980;BME280;49075;53.988;27.678;2023-01-27T03:26:13;989.8;;;-3.2;81.4
62980;BME280;49075;53.988;27.678;2023-01-27T03:31:12;989.8;;;-3.2;81.3
62980;BME280;49075;53.988;27.678;2023-01-27T03:36:34;989.7;;;-3.3;81.4
62980;BME280;49075;53.988;27.678;2023-01-27T03:41:32;989.7;;;-3.3;81.5
62980;BME280;49075;53.988;27.678;2023-01-27T03:46:12;989.7;;;-3.3;81.4
62980;BME280;49075;53.988;27.678;2023-01-27T03:51:19;989.7;;;-3.2;81.3
62980;BME280;49075;53.988;27.678;2023-01-27T03:56:11;989.7;;;-3.2;81.3
62980;BME280;49075;53.988;27.678;2023-01-27T04:01:12;989.7;;;-3.1;81.1
62980;BME280;49075;53.988;27.678;2023-01-27T04:06:35;989.7;;;-3.2;81.3
62980;BME280;49075;53.988;27.678;2023-01-27T04:11:24;989.7;;;-3.1;81.2
62980;BME280;49075;53.988;27.678;2023-01-27T04:16:14;989.7;;;-3.1;81.2
62980;BME280;49075;53.988;27.678;2023-01-27T04:21:37;989.7;;;-3.1;81.3
62980;BME280;49075;53.988;27.678;2023-01-27T04:26:12;989.8;;;-3.1;81.3
62980;BME280;49075;53.988;27.678;2023-01-27T04:31:25;989.8;;;-3;81.2
62980;BME280;49075;53.988;27.678;2023-01-27T04:36:12;989.8;;;-3.1;81.2
62980;BME280;49075;53.988;27.678;2023-01-27T04:41:12;989.8;;;-3;81.1
62980;BME280;49075;53.988;27.678;2023-01-27T04:46:22;989.9;;;-3;81
62980;BME280;49075;53.988;27.678;2023-01-27T04:51:22;989.9;;;-3;81.2
62980;BME280;49075;53.988;27.678;2023-01-27T04:56:24;989.9;;;-3;81.4
62980;BME280;49075;53.988;27.678;2023-01-27T05:01:34;990;;;-3;81.5
62980;BME280;49075;53.988;27.678;2023-01-27T05:06:34;989.9;;;-3;81.4
62980;BME280;49075;53.988;27.678;2023-01-27T05:11:36;989.9;;;-3;81.5
62980;BME280;49075;53.988;27.678;2023-01-27T05:16:26;990;;;-2.9;81.4
62980;BME280;49075;53.988;27.678;2023-01-27T05:21:15;990;;;-2.8;81.2
62980;BME280;49075;53.988;27.678;2023-01-27T05:26:27;990.1;;;-2.8;81.2
62980;BME280;49075;53.988;27.678;2023-01-27T05:31:13;990.2;;;-2.7;81
62980;BME280;49075;53.988;27.678;2023-01-27T05:36:25;990.3;;;-2.6;80.9
62980;BME280;49075;53.988;27.678;2023-01-27T05:41:32;990.4;;;-2.5;80.8
62980;BME280;49075;53.988;27.678;2023-01-27T05:46:25;990.3;;;-2.5;80.7
62980;BME280;49075;53.988;27.678;2023-01-27T05:51:33;990.4;;;-2.5;80.6
62980;BME280;49075;53.988;27.678;2023-01-27T05:56:23;990.3;;;-2.5;80.5
62980;BME280;49075;53.988;27.678;2023-01-27T06:01:25;990.3;;;-2.4;80.5
62980;BME280;49075;53.988;27.678;2023-01-27T06:06:15;990.4;;;-2.5;80.4
62980;BME280;49075;53.988;27.678;2023-01-27T06:11:15;990.4;;;-2.5;80.6
62980;BME280;49075;53.988;27.678;2023-01-27T06:16:22;990.4;;;-2.5;80.5
62980;BME280;49075;53.988;27.678;2023-01-27T06:21:38;990.4;;;-2.5;80.5
62980;BME280;49075;53.988;27.678;2023-01-27T06:26:26;990.4;;;-2.5;80.4
62980;BME280;49075;53.988;27.678;2023-01-27T06:31:15;990.5;;;-2.4;80.4
62980;BME280;49075;53.988;27.678;2023-01-27T06:36:34;990.5;;;-2.3;80.3
62980;BME280;49075;53.988;27.678;2023-01-27T06:41:28;990.5;;;-2.3;80
62980;BME280;49075;53.988;27.678;2023-01-27T06:46:14;990.5;;;-2.4;80.1
62980;BME280;49075;53.988;27.678;2023-01-27T06:51:24;990.5;;;-2.4;80
62980;BME280;49075;53.988;27.678;2023-01-27T06:56:26;990.6;;;-2.3;80
62980;BME280;49075;53.988;27.678;2023-01-27T07:01:34;990.6;;;-2.3;79.8
62980;BME280;49075;53.988;27.678;2023-01-27T07:06:14;990.6;;;-2.2;79.8
62980;BME280;49075;53.988;27.678;2023-01-27T07:11:24;990.6;;;-2.1;79.5
62980;BME280;49075;53.988;27.678;2023-01-27T07:16:36;990.6;;;-2;79.3
62980;BME280;49075;53.988;27.678;2023-01-27T07:21:15;990.6;;;-1.9;78.9
62980;BME280;49075;53.988;27.678;2023-01-27T07:26:14;990.7;;;-1.8;79
62980;BME280;49075;53.988;27.678;2023-01-27T07:31:14;990.7;;;-1.8;78.5
62980;BME280;49075;53.988;27.678;2023-01-27T07:36:14;990.7;;;-1.7;78.7
62980;BME280;49075;53.988;27.678;2023-01-27T07:41:14;990.8;;;-1.6;78.1
62980;BME280;49075;53.988;27.678;2023-01-27T07:46:14;990.8;;;-1.3;78.2
62980;BME280;49075;53.988;27.678;2023-01-27T07:51:26;990.9;;;-1.3;77.5
62980;BME280;49075;53.988;27.678;2023-01-27T07:56:36;990.9;;;-1.2;77.7
62980;BME280;49075;53.988;27.678;2023-01-27T08:01:14;990.9;;;-1.1;77.2
62980;BME280;49075;53.988;27.678;2023-01-27T08:06:15;990.9;;;-0.9;77.3
62980;BME280;49075;53.988;27.678;2023-01-27T08:11:36;990.9;;;-0.9;76.4
62980;BME280;49075;53.988;27.678;2023-01-27T08:16:24;990.9;;;-1;76.7
62980;BME280;49075;53.988;27.678;2023-01-27T08:21:24;990.9;;;-1;76.5
62980;BME280;49075;53.988;27.678;2023-01-27T08:26:36;990.9;;;-1.1;76.2
62980;BME280;49075;53.988;27.678;2023-01-27T08:31:30;991;;;-1;76.6
62980;BME280;49075;53.988;27.678;2023-01-27T08:36:24;991.1;;;-1;76.1
62980;BME280;49075;53.988;27.678;2023-01-27T08:41:16;991.1;;;-1;76.6
62980;BME280;49075;53.988;27.678;2023-01-27T08:46:26;991.1;;;-1;76.2
62980;BME280;49075;53.988;27.678;2023-01-27T08:51:38;991.1;;;-1;76.5
62980;BME280;49075;53.988;27.678;2023-01-27T08:56:36;991.1;;;-1;76
62980;BME280;49075;53.988;27.678;2023-01-27T09:01:15;991.2;;;-0.9;76.2
62980;BME280;49075;53.988;27.678;2023-01-27T09:06:15;991.2;;;-0.9;75.6
62980;BME280;49075;53.988;27.678;2023-01-27T09:11:15;991.2;;;-0.7;76.1
62980;BME280;49075;53.988;27.678;2023-01-27T09:16:24;991.2;;;-0.7;75.5
62980;BME280;49075;53.988;27.678;2023-01-27T09:21:26;991.2;;;-0.7;75.5
62980;BME280;49075;53.988;27.678;2023-01-27T09:26:14;991.2;;;-0.7;75.5
62980;BME280;49075;53.988;27.678;2023-01-27T09:31:14;991.1;;;-0.5;75.3
62980;BME280;49075;53.988;27.678;2023-01-27T09:36:34;991.1;;;-0.2;75.2
62980;BME280;49075;53.988;27.678;2023-01-27T09:41:21;991.1;;;0.1;74.3
62980;BME280;49075;53.988;27.678;2023-01-27T09:46:27;991.1;;;0.4;74.5
62980;BME280;49075;53.988;27.678;2023-01-27T09:51:15;991.1;;;0.5;73.6
62980;BME280;49075;53.988;27.678;2023-01-27T09:56:15;991.1;;;0.9;74
62980;BME280;49075;53.988;27.678;2023-01-27T10:01:26;991.1;;;1;71.8
62980;BME280;49075;53.988;27.678;2023-01-27T10:06:20;991.1;;;1.2;73
62980;BME280;49075;53.988;27.678;2023-01-27T10:11:17;991;;;1.2;71.7
62980;BME280;49075;53.988;27.678;2023-01-27T10:16:40;991;;;1.4;72.1
62980;BME280;49075;53.988;27.678;2023-01-27T10:21:26;991;;;1.4;70.5
62980;BME280;49075;53.988;27.678;2023-01-27T10:26:18;991;;;1.4;71.1
62980;BME280;49075;53.988;27.678;2023-01-27T10:31:44;991;;;1.3;70.6
62980;BME280;49075;53.988;27.678;2023-01-27T10:36:25;991.1;;;1.3;70.8
62980;BME280;49075;53.988;27.678;2023-01-27T10:41:47;991.1;;;1.1;70.8
62980;BME280;49075;53.988;27.678;2023-01-27T10:46:34;991.1;;;1;71.1
62980;BME280;49075;53.988;27.678;2023-01-27T10:51:23;991.1;;;1.1;71
62980;BME280;49075;53.988;27.678;2023-01-27T10:56:36;991.1;;;1;71
62980;BME280;49075;53.988;27.678;2023-01-27T11:01:25;991.1;;;1;71.5
62980;BME280;49075;53.988;27.678;2023-01-27T11:06:35;991.1;;;0.7;71
62980;BME280;49075;53.988;27.678;2023-01-27T11:11:24;991.1;;;0.6;71.7
62980;BME280;49075;53.988;27.678;2023-01-27T11:16:13;991.1;;;0.6;71.6
62980;BME280;49075;53.988;27.678;2023-01-27T11:21:34;991;;;0.7;72
62980;BME280;49075;53.988;27.678;2023-01-27T11:26:25;991;;;0.8;71.2
62980;BME280;49075;53.988;27.678;2023-01-27T11:31:15;991;;;0.9;71.8
62980;BME280;49075;53.988;27.678;2023-01-27T11:36:23;990.9;;;0.8;71.1
62980;BME280;49075;53.988;27.678;2023-01-27T11:41:24;991;;;0.9;71.8
62980;BME280;49075;53.988;27.678;2023-01-27T11:46:22;991;;;0.9;70.8
62980;BME280;49075;53.988;27.678;2023-01-27T11:51:13;991;;;0.9;71.6
62980;BME280;49075;53.988;27.678;2023-01-27T11:56:14;991;;;0.8;71.1
62980;BME280;49075;53.988;27.678;2023-01-27T12:01:14;991.1;;;0.9;71.9
62980;BME280;49075;53.988;27.678;2023-01-27T12:06:13;991.1;;;0.9;71.1
62980;BME280;49075;53.988;27.678;2023-01-27T12:11:15;991.1;;;0.9;71.7
62980;BME280;49075;53.988;27.678;2023-01-27T12:16:26;991.1;;;0.8;71.5
62980;BME280;49075;53.988;27.678;2023-01-27T12:21:32;991.1;;;0.7;72
62980;BME280;49075;53.988;27.678;2023-01-27T12:26:33;991.1;;;0.7;71.6
62980;BME280;49075;53.988;27.678;2023-01-27T12:31:23;991.2;;;0.6;72.1
62980;BME280;49075;53.988;27.678;2023-01-27T12:36:22;991.2;;;0.4;72.1
62980;BME280;49075;53.988;27.678;2023-01-27T12:41:18;991.2;;;0.4;72.5
62980;BME280;49075;53.988;27.678;2023-01-27T12:46:16;991.3;;;0.3;72.5
62980;BME280;49075;53.988;27.678;2023-01-27T12:51:13;991.3;;;0.4;72.9
62980;BME280;49075;53.988;27.678;2023-01-27T12:56:34;991.3;;;0.4;72.4
62980;BME280;49075;53.988;27.678;2023-01-27T13:01:28;991.3;;;0.5;72.7
62980;BME280;49075;53.988;27.678;2023-01-27T13:06:13;991.3;;;0.3;72.4
62980;BME280;49075;53.988;27.678;2023-01-27T13:11:33;991.4;;;0.3;72.9
62980;BME280;49075;53.988;27.678;2023-01-27T13:16:15;991.5;;;0.3;72.6
62980;BME280;49075;53.988;27.678;2023-01-27T13:21:15;991.5;;;0.3;73
62980;BME280;49075;53.988;27.678;2023-01-27T13:26:34;991.6;;;0.2;73
62980;BME280;49075;53.988;27.678;2023-01-27T13:31:37;991.5;;;0.2;73.2
62980;BME280;49075;53.988;27.678;2023-01-27T13:36:28;991.5;;;0.1;73.3
62980;BME280;49075;53.988;27.678;2023-01-27T13:41:14;991.5;;;0.1;73.3
62980;BME280;49075;53.988;27.678;2023-01-27T13:46:16;991.6;;;0.1;73.4
62980;BME280;49075;53.988;27.678;2023-01-27T13:51:15;991.7;;;0;73.5
62980;BME280;49075;53.988;27.678;2023-01-27T13:56:19;991.8;;;0;73.7
62980;BME280;49075;53.988;27.678;2023-01-27T14:01:17;991.8;;;0;73.5
62980;BME280;49075;53.988;27.678;2023-01-27T14:06:26;991.8;;;-0.2;73.8
62980;BME280;49075;53.988;27.678;2023-01-27T14:11:38;991.9;;;-0.2;74.2
62980;BME280;49075;53.988;27.678;2023-01-27T14:16:16;991.9;;;-0.4;74.2
62980;BME280;49075;53.988;27.678;2023-01-27T14:21:26;991.9;;;-0.4;74.5
62980;BME280;49075;53.988;27.678;2023-01-27T14:26:32;991.9;;;-0.4;74.6
62980;BME280;49075;53.988;27.678;2023-01-27T14:31:15;991.9;;;-0.4;74.7
62980;BME280;49075;53.988;27.678;2023-01-27T14:36:38;991.9;;;-0.5;74.8
62980;BME280;49075;53.988;27.678;2023-01-27T14:41:30;992;;;-0.6;75
62980;BME280;49075;53.988;27.678;2023-01-27T14:46:28;992;;;-0.7;75
62980;BME280;49075;53.988;27.678;2023-01-27T14:51:38;991.9;;;-0.8;74.9
62980;BME280;49075;53.988;27.678;2023-01-27T14:57:05;991.9;;;-0.8;74.9
62980;BME280;49075;53.988;27.678;2023-01-27T15:01:26;992;;;-0.9;75.1
62980;BME280;49075;53.988;27.678;2023-01-27T15:06:38;992;;;-0.9;75.2
62980;BME280;49075;53.988;27.678;2023-01-27T15:11:30;992;;;-0.9;75.2
62980;BME280;49075;53.988;27.678;2023-01-27T15:16:31;992;;;-1;75.5
62980;BME280;49075;53.988;27.678;2023-01-27T15:21:18;992.1;;;-0.9;75.6
62980;BME280;49075;53.988;27.678;2023-01-27T15:26:27;992.1;;;-0.8;75.6
62980;BME280;49075;53.988;27.678;2023-01-27T15:31:32;992.1;;;-0.8;75.5
62980;BME280;49075;53.988;27.678;2023-01-27T15:36:37;992.1;;;-0.8;75.5
62980;BME280;49075;53.988;27.678;2023-01-27T15:41:14;992.1;;;-0.7;75.5
62980;BME280;49075;53.988;27.678;2023-01-27T15:46:16;992.1;;;-0.7;75.4
62980;BME280;49075;53.988;27.678;2023-01-27T15:51:25;992.2;;;-0.8;75.4
62980;BME280;49075;53.988;27.678;2023-01-27T15:56:14;992.2;;;-0.8;75.4
62980;BME280;49075;53.988;27.678;2023-01-27T16:01:21;992.3;;;-0.9;75.4
62980;BME280;49075;53.988;27.678;2023-01-27T16:06:23;992.3;;;-0.9;75.6
62980;BME280;49075;53.988;27.678;2023-01-27T16:11:23;992.4;;;-1.1;75.8
62980;BME280;49075;53.988;27.678;2023-01-27T16:16:28;992.5;;;-1.1;75.9
62980;BME280;49075;53.988;27.678;2023-01-27T16:21:24;992.5;;;-1.2;76.1
62980;BME280;49075;53.988;27.678;2023-01-27T16:26:28;992.5;;;-1.1;76
62980;BME280;49075;53.988;27.678;2023-01-27T16:31:25;992.6;;;-1.2;76
62980;BME280;49075;53.988;27.678;2023-01-27T16:36:35;992.6;;;-1.2;76.1
62980;BME280;49075;53.988;27.678;2023-01-27T16:41:27;992.6;;;-1.2;76.2
62980;BME280;49075;53.988;27.678;2023-01-27T16:46:21;992.6;;;-1.2;76.3
62980;BME280;49075;53.988;27.678;2023-01-27T16:51:16;992.6;;;-1.2;76.2
62980;BME280;49075;53.988;27.678;2023-01-27T16:56:16;992.6;;;-1.3;76.2
62980;BME280;49075;53.988;27.678;2023-01-27T17:01:55;992.6;;;-1.3;76.3
62980;BME280;49075;53.988;27.678;2023-01-27T17:06:15;992.8;;;-1.1;76.2
62980;BME280;49075;53.988;27.678;2023-01-27T17:11:26;992.7;;;-1.2;76.3
62980;BME280;49075;53.988;27.678;2023-01-27T17:16:17;992.8;;;-1.1;76.2
62980;BME280;49075;53.988;27.678;2023-01-27T17:22:01;992.8;;;-1.2;76.3
62980;BME280;49075;53.988;27.678;2023-01-27T17:26:49;992.9;;;-1.2;76.3
62980;BME280;49075;53.988;27.678;2023-01-27T17:31:24;992.9;;;-1.2;76.5
62980;BME280;49075;53.988;27.678;2023-01-27T17:36:37;993;;;-1.1;76.3
62980;BME280;49075;53.988;27.678;2023-01-27T17:41:26;993;;;-1.2;76.3
62980;BME280;49075;53.988;27.678;2023-01-27T17:46:25;993;;;-1.2;76.3
62980;BME280;49075;53.988;27.678;2023-01-27T17:51:27;993;;;-1.3;76.3
62980;BME280;49075;53.988;27.678;2023-01-27T17:56:27;993;;;-1.2;76.3
62980;BME280;49075;53.988;27.678;2023-01-27T18:01:16;993.1;;;-1.3;76.4
62980;BME280;49075;53.988;27.678;2023-01-27T18:06:27;993.1;;;-1.3;76.6
62980;BME280;49075;53.988;27.678;2023-01-27T18:11:29;993.1;;;-1.4;76.7
62980;BME280;49075;53.988;27.678;2023-01-27T18:16:17;993.1;;;-1.4;76.7
62980;BME280;49075;53.988;27.678;2023-01-27T18:21:17;993.1;;;-1.4;76.9
62980;BME280;49075;53.988;27.678;2023-01-27T18:26:38;993;;;-1.4;76.8
62980;BME280;49075;53.988;27.678;2023-01-27T18:31:43;993;;;-1.5;77
62980;BME280;49075;53.988;27.678;2023-01-27T18:36:18;993.1;;;-1.5;77
62980;BME280;49075;53.988;27.678;2023-01-27T18:41:20;993.1;;;-1.6;77.2
62980;BME280;49075;53.988;27.678;2023-01-27T18:46:28;993.1;;;-1.6;77.3
62980;BME280;49075;53.988;27.678;2023-01-27T18:51:27;993.1;;;-1.6;77.4
62980;BME280;49075;53.988;27.678;2023-01-27T18:56:38;993.1;;;-1.6;77.4
62980;BME280;49075;53.988;27.678;2023-01-27T19:01:24;993.1;;;-1.7;77.3
62980;BME280;49075;53.988;27.678;2023-01-27T19:06:26;993.1;;;-1.8;77.4
62980;BME280;49075;53.988;27.678;2023-01-27T19:11:16;993.1;;;-1.8;77.4
62980;BME280;49075;53.988;27.678;2023-01-27T19:16:16;993.1;;;-1.8;77.5
62980;BME280;49075;53.988;27.678;2023-01-27T19:21:16;993.2;;;-1.8;77.4
62980;BME280;49075;53.988;27.678;2023-01-27T19:26:38;993.2;;;-1.8;77.5
62980;BME280;49075;53.988;27.678;2023-01-27T19:31:26;993.2;;;-1.8;77.5
62980;BME280;49075;53.988;27.678;2023-01-27T19:36:39;993.2;;;-1.8;77.4
62980;BME280;49075;53.988;27.678;2023-01-27T19:41:38;993.3;;;-1.8;77.4
62980;BME280;49075;53.988;27.678;2023-01-27T19:46:17;993.3;;;-1.8;77.5
62980;BME280;49075;53.988;27.678;2023-01-27T19:51:28;993.3;;;-1.9;77.6
62980;BME280;49075;53.988;27.678;2023-01-27T19:56:17;993.4;;;-1.9;77.9
62980;BME280;49075;53.988;27.678;2023-01-27T20:01:17;993.5;;;-1.9;77.8
62980;BME280;49075;53.988;27.678;2023-01-27T20:06:17;993.5;;;-1.9;77.7
62980;BME280;49075;53.988;27.678;2023-01-27T20:11:30;993.5;;;-1.9;77.6
62980;BME280;49075;53.988;27.678;2023-01-27T20:16:41;993.5;;;-1.9;77.6
62980;BME280;49075;53.988;27.678;2023-01-27T20:21:27;993.5;;;-1.9;77.5
62980;BME280;49075;53.988;27.678;2023-01-27T20:26:17;993.5;;;-2;77.3
62980;BME280;49075;53.988;27.678;2023-01-27T20:31:38;993.5;;;-2;77.2
62980;BME280;49075;53.988;27.678;2023-01-27T20:36:15;993.5;;;-2;77
62980;BME280;49075;53.988;27.678;2023-01-27T20:41:24;993.5;;;-1.9;76.9
62980;BME280;49075;53.988;27.678;2023-01-27T20:46:16;993.6;;;-1.9;76.7
62980;BME280;49075;53.988;27.678;2023-01-27T20:51:26;993.7;;;-1.9;76.4
62980;BME280;49075;53.988;27.678;2023-01-27T20:56:17;993.8;;;-1.8;76.5
62980;BME280;49075;53.988;27.678;2023-01-27T21:01:17;993.9;;;-1.8;76.6
62980;BME280;49075;53.988;27.678;2023-01-27T21:06:15;994;;;-1.8;76.8
62980;BME280;49075;53.988;27.678;2023-01-27T21:11:17;993.9;;;-1.8;76.9
62980;BME280;49075;53.988;27.678;2023-01-27T21:16:16;993.9;;;-1.8;76.8
62980;BME280;49075;53.988;27.678;2023-01-27T21:21:29;993.8;;;-1.8;76.8
62980;BME280;49075;53.988;27.678;2023-01-27T21:26:50;993.8;;;-1.8;76.8
62980;BME280;49075;53.988;27.678;2023-01-27T21:31:15;993.8;;;-1.8;76.8
62980;BME280;49075;53.988;27.678;2023-01-27T21:36:15;993.8;;;-1.8;76.7
62980;BME280;49075;53.988;27.678;2023-01-27T21:41:39;993.7;;;-1.9;76.8
62980;BME280;49075;53.988;27.678;2023-01-27T21:46:36;993.7;;;-1.8;76.9
62980;BME280;49075;53.988;27.678;2023-01-27T21:51:24;993.6;;;-1.9;77
62980;BME280;49075;53.988;27.678;2023-01-27T21:56:14;993.6;;;-2;77.1
62980;BME280;49075;53.988;27.678;2023-01-27T22:01:24;993.6;;;-2.1;77.4
62980;BME280;49075;53.988;27.678;2023-01-27T22:06:37;993.6;;;-2.1;77.5
62980;BME280;49075;53.988;27.678;2023-01-27T22:11:24;993.6;;;-2.2;77.6
62980;BME280;49075;53.988;27.678;2023-01-27T22:16:36;993.6;;;-2.3;77.7
62980;BME280;49075;53.988;27.678;2023-01-27T22:21:14;993.5;;;-2.2;77.6
62980;BME280;49075;53.988;27.678;2023-01-27T22:26:14;993.5;;;-2.2;77.5
62980;BME280;49075;53.988;27.678;2023-01-27T22:31:33;993.5;;;-2.2;77.3
62980;BME280;49075;53.988;27.678;2023-01-27T22:36:14;993.5;;;-2.2;77.1
62980;BME280;49075;53.988;27.678;2023-01-27T22:41:27;993.5;;;-2.2;77
62980;BME280;49075;53.988;27.678;2023-01-27T22:46:14;993.6;;;-2.2;76.7
62980;BME280;49075;53.988;27.678;2023-01-27T22:51:15;993.6;;;-2.2;76.9
62980;BME280;49075;53.988;27.678;2023-01-27T22:56:22;993.5;;;-2.2;76.9
62980;BME280;49075;53.988;27.678;2023-01-27T23:01:20;993.5;;;-2.2;77
62980;BME280;49075;53.988;27.678;2023-01-27T23:06:44;993.5;;;-2.2;77.1
62980;BME280;49075;53.988;27.678;2023-01-27T23:11:34;993.5;;;-2.2;77.2
62980;BME280;49075;53.988;27.678;2023-01-27T23:16:12;993.5;;;-2.3;77.5
62980;BME280;49075;53.988;27.678;2023-01-27T23:21:25;993.5;;;-2.3;77.5
62980;BME280;49075;53.988;27.678;2023-01-27T23:26:32;993.6;;;-2.4;77.7
62980;BME280;49075;53.988;27.678;2023-01-27T23:31:36;993.5;;;-2.3;77.6
62980;BME280;49075;53.988;27.678;2023-01-27T23:36:22;993.5;;;-2.4;77.7
62980;BME280;49075;53.988;27.678;2023-01-27T23:41:22;993.6;;;-2.4;77.9
62980;BME280;49075;53.988;27.678;2023-01-27T23:46:23;993.6;;;-2.4;77.9
62980;BME280;49075;53.988;27.678;2023-01-27T23:51:12;993.6;;;-2.4;77.9
62980;BME280;49075;53.988;27.678;2023-01-27T23:56:13;993.6;;;-2.5;78.1
